Time;durP1;ratioP1;P1;durP2;ratioP2;P2;SDS_P1;SDS_P2;PMS_P1;PMS_P2;Temp;Humidity;BMP_temperature;BMP_pressure;BME280_temperature;BME280_humidity;BME280_pressure;Samples;Min_cycle;Max_cycle;Signal;HPM_P1;HPM_P2
2024/02/13 00:01:24;;;;;;;4.15;2.60;;;;;;;5.61;100.00;100934.03;6302301;28;20322;-76
2024/02/13 00:04:25;;;;;;;5.85;2.72;;;;;;;5.59;100.00;100941.91;6302171;28;20048;-76
2024/02/13 00:07:27;;;;;;;5.82;3.08;;;;;;;5.56;100.00;100941.16;6302209;28;20064;-76
2024/02/13 00:10:29;;;;;;;5.40;3.05;;;;;;;5.58;100.00;100953.22;6302339;28;20057;-76
2024/02/13 00:13:32;;;;;;;5.43;2.80;;;;;;;5.70;100.00;100949.41;6302037;28;20044;-76
2024/02/13 00:16:35;;;;;;;7.35;3.60;;;;;;;5.76;100.00;100951.81;6301523;28;20044;-76
2024/02/13 00:19:36;;;;;;;9.95;3.92;;;;;;;5.65;100.00;100953.06;6301523;28;20113;-76
2024/02/13 00:22:38;;;;;;;5.75;2.65;;;;;;;5.74;100.00;100955.41;6301619;28;20049;-76
2024/02/13 00:25:39;;;;;;;16.10;3.40;;;;;;;5.67;100.00;100969.50;6301389;28;20338;-76
2024/02/13 00:28:44;;;;;;;11.30;3.83;;;;;;;5.71;100.00;100973.72;6301217;28;20048;-76
2024/02/13 00:31:45;;;;;;;8.20;3.53;;;;;;;5.68;100.00;100969.47;6301673;28;20139;-77
2024/02/13 00:34:46;;;;;;;9.10;3.58;;;;;;;5.67;100.00;100977.31;6301233;28;20576;-76
2024/02/13 00:37:48;;;;;;;11.75;3.20;;;;;;;5.63;100.00;100978.31;6301001;28;20055;-77
2024/02/13 00:40:49;;;;;;;6.00;3.72;;;;;;;5.63;100.00;100986.97;6301382;28;20049;-77
2024/02/13 00:43:52;;;;;;;7.03;3.35;;;;;;;5.60;100.00;100984.47;6301123;28;20098;-77
2024/02/13 00:46:56;;;;;;;9.10;4.40;;;;;;;5.62;100.00;100990.50;6301034;28;20055;-77
2024/02/13 00:49:57;;;;;;;9.50;4.30;;;;;;;5.58;100.00;100994.09;6300632;28;20506;-77
2024/02/13 00:52:59;;;;;;;10.85;4.60;;;;;;;5.55;100.00;100994.19;6301057;28;20447;-77
2024/02/13 00:56:01;;;;;;;8.38;4.55;;;;;;;5.56;100.00;100993.28;6300695;28;20044;-77
2024/02/13 00:59:04;;;;;;;9.13;4.10;;;;;;;5.53;100.00;100999.44;6299474;28;20187;-77
2024/02/13 01:02:05;;;;;;;10.63;3.90;;;;;;;5.51;100.00;100997.78;6300529;28;20428;-77
2024/02/13 01:05:07;;;;;;;10.00;4.00;;;;;;;5.45;100.00;101000.53;6300356;28;20049;-77
2024/02/13 01:08:10;;;;;;;10.40;4.55;;;;;;;5.47;100.00;101002.22;6300107;28;20048;-76
2024/02/13 01:11:11;;;;;;;8.30;4.15;;;;;;;5.45;100.00;101006.63;6300892;28;20052;-77
2024/02/13 01:14:14;;;;;;;11.48;3.72;;;;;;;5.42;100.00;101003.25;6300516;28;20428;-76
2024/02/13 01:17:15;;;;;;;11.23;4.63;;;;;;;5.41;100.00;101018.03;6300439;28;20056;-77
2024/02/13 01:20:18;;;;;;;7.57;4.18;;;;;;;5.40;100.00;101016.31;6300624;28;20056;-77
2024/02/13 01:23:19;;;;;;;8.32;4.25;;;;;;;5.45;100.00;101024.88;6300225;28;20099;-77
2024/02/13 01:26:21;;;;;;;11.23;4.07;;;;;;;5.47;100.00;101017.00;6300404;28;20048;-76
2024/02/13 01:29:23;;;;;;;8.05;4.38;;;;;;;5.50;100.00;101027.34;6299308;28;20051;-77
2024/02/13 01:32:25;;;;;;;8.85;4.43;;;;;;;5.53;100.00;101025.50;6300455;28;20447;-76
2024/02/13 01:35:27;;;;;;;12.90;4.30;;;;;;;5.54;100.00;101031.56;6298993;28;20044;-77
2024/02/13 01:38:30;;;;;;;11.02;4.82;;;;;;;5.47;100.00;101035.25;6298943;28;20348;-76
2024/02/13 01:41:32;;;;;;;11.82;4.75;;;;;;;5.53;100.00;101038.53;6299588;28;21291;-77
2024/02/13 01:44:35;;;;;;;9.30;4.53;;;;;;;5.57;100.00;101047.97;6299821;28;20410;-77
2024/02/13 01:47:37;;;;;;;10.75;4.55;;;;;;;5.55;100.00;101041.13;6299616;28;20437;-76
2024/02/13 01:50:38;;;;;;;9.35;4.75;;;;;;;5.57;100.00;101045.38;6300398;28;20051;-76
2024/02/13 01:53:41;;;;;;;9.82;3.92;;;;;;;5.59;100.00;101040.13;6299853;28;20044;-77
2024/02/13 01:56:46;;;;;;;9.25;4.57;;;;;;;5.66;100.00;101040.81;6300027;28;20048;-76
2024/02/13 01:59:49;;;;;;;8.70;4.35;;;;;;;5.70;100.00;101045.03;6299626;28;20090;-77
2024/02/13 02:02:51;;;;;;;10.25;4.32;;;;;;;5.72;100.00;101048.44;6299804;28;20052;-77
2024/02/13 02:05:52;;;;;;;11.77;4.10;;;;;;;5.72;100.00;101048.44;6299531;28;20479;-77
2024/02/13 02:08:55;;;;;;;14.35;4.97;;;;;;;5.71;100.00;101046.72;6299404;28;20048;-77
2024/02/13 02:11:57;;;;;;;9.20;4.15;;;;;;;5.70;100.00;101048.50;6300111;28;20049;-76
2024/02/13 02:14:59;;;;;;;16.13;5.03;;;;;;;5.72;100.00;101067.56;6312875;23;20054;-77
2024/02/13 02:18:01;;;;;;;8.77;4.53;;;;;;;5.77;100.00;101068.28;6299567;28;20055;-77
2024/02/13 02:21:02;;;;;;;9.20;5.15;;;;;;;5.80;100.00;101056.91;6299694;28;20354;-77
2024/02/13 02:24:05;;;;;;;9.85;4.97;;;;;;;5.81;100.00;101064.69;6291366;28;20052;-77
2024/02/13 02:27:08;;;;;;;11.90;4.57;;;;;;;5.83;100.00;101062.03;6299183;28;20056;-77
2024/02/13 02:30:10;;;;;;;8.95;4.93;;;;;;;5.81;100.00;101063.81;6299905;28;20049;-77
2024/02/13 02:33:12;;;;;;;14.00;4.72;;;;;;;5.73;100.00;101068.44;6299753;28;20051;-77
2024/02/13 02:36:13;;;;;;;15.07;5.85;;;;;;;5.68;100.00;101073.78;6299089;28;20048;-78
2024/02/13 02:39:15;;;;;;;7.78;4.60;;;;;;;5.73;100.00;101071.88;6300219;28;20325;-77
2024/02/13 02:42:17;;;;;;;10.05;4.72;;;;;;;5.76;100.00;101068.31;6304195;28;20082;-77
2024/02/13 02:45:19;;;;;;;9.95;4.72;;;;;;;5.79;100.00;101076.06;6304016;28;20063;-77
2024/02/13 02:48:20;;;;;;;14.77;4.88;;;;;;;5.83;100.00;101082.91;6303603;28;20060;-78
2024/02/13 02:51:22;;;;;;;10.60;5.30;;;;;;;5.78;100.00;101077.81;6304169;28;20052;-78
2024/02/13 02:54:23;;;;;;;9.93;4.45;;;;;;;5.80;100.00;101088.19;6303708;28;20040;-77
2024/02/13 02:57:26;;;;;;;7.07;4.18;;;;;;;5.75;100.00;101090.94;6303577;28;20150;-77
2024/02/13 03:00:29;;;;;;;9.02;4.43;;;;;;;5.79;100.00;101091.72;6303841;28;20424;-78
2024/02/13 03:03:31;;;;;;;9.57;4.80;;;;;;;5.80;100.00;101103.84;6303457;28;20490;-77
2024/02/13 03:06:33;;;;;;;12.45;5.15;;;;;;;5.77;100.00;101106.56;6303605;28;20502;-77
2024/02/13 03:09:34;;;;;;;8.00;4.45;;;;;;;5.79;100.00;101108.22;6302954;28;20350;-77
2024/02/13 03:12:37;;;;;;;12.15;4.30;;;;;;;5.80;100.00;101101.25;6303816;28;20055;-77
2024/02/13 03:15:38;;;;;;;9.65;4.43;;;;;;;5.79;100.00;101107.34;6303047;28;20051;-78
2024/02/13 03:18:40;;;;;;;10.63;4.60;;;;;;;5.73;100.00;101107.53;6302990;28;20080;-78
2024/02/13 03:21:42;;;;;;;11.25;4.68;;;;;;;5.71;100.00;101114.53;6303280;28;20044;-77
2024/02/13 03:24:44;;;;;;;16.77;5.68;;;;;;;5.62;100.00;101122.59;6303190;28;20059;-77
2024/02/13 03:27:46;;;;;;;12.35;5.30;;;;;;;5.64;100.00;101115.59;6302851;28;20044;-78
2024/02/13 03:30:53;;;;;;;9.77;4.45;;;;;;;5.60;100.00;101118.28;6303133;28;20052;-77
2024/02/13 03:33:54;;;;;;;10.98;4.68;;;;;;;5.53;100.00;101124.53;6296698;28;20049;-77
2024/02/13 03:36:56;;;;;;;18.85;4.50;;;;;;;5.49;100.00;101120.31;6297329;28;20045;-79
2024/02/13 03:39:57;;;;;;;10.43;4.43;;;;;;;5.46;100.00;101127.38;6302528;28;20067;-78
2024/02/13 03:43:00;;;;;;;8.68;4.30;;;;;;;5.44;100.00;101130.00;6302987;28;20048;-78
2024/02/13 03:46:02;;;;;;;11.30;4.32;;;;;;;5.42;100.00;101124.00;6302559;28;20101;-78
2024/02/13 03:49:03;;;;;;;9.77;4.28;;;;;;;5.11;100.00;101129.13;6300473;28;20044;-78
2024/02/13 03:52:05;;;;;;;10.65;4.07;;;;;;;5.06;100.00;101129.22;6297707;28;20049;-77
2024/02/13 03:55:06;;;;;;;10.48;4.50;;;;;;;4.93;100.00;101133.03;6289444;28;20041;-78
2024/02/13 03:58:09;;;;;;;13.70;5.45;;;;;;;4.91;100.00;101139.19;6289139;28;20049;-77
2024/02/13 04:01:10;;;;;;;11.18;5.50;;;;;;;4.92;100.00;101135.66;6289032;28;20437;-78
2024/02/13 04:04:12;;;;;;;10.18;4.85;;;;;;;4.89;100.00;101136.59;6289370;28;20037;-78
2024/02/13 04:07:13;;;;;;;15.65;5.32;;;;;;;4.76;100.00;101140.38;6290788;28;20463;-79
2024/02/13 04:10:15;;;;;;;12.57;6.50;;;;;;;4.71;100.00;101148.28;6290111;28;20048;-78
2024/02/13 04:13:17;;;;;;;12.57;5.63;;;;;;;4.67;100.00;101144.03;6287624;28;20044;-78
2024/02/13 04:16:19;;;;;;;14.30;6.82;;;;;;;4.70;100.00;101145.72;6287784;28;20099;-77
2024/02/13 04:19:20;;;;;;;15.50;6.68;;;;;;;4.70;100.00;101146.56;6289431;28;20055;-78
2024/02/13 04:22:21;;;;;;;19.13;7.82;;;;;;;4.64;100.00;101144.13;6288231;28;20540;-78
2024/02/13 04:25:23;;;;;;;17.73;7.05;;;;;;;4.59;100.00;101159.00;6289330;28;20047;-78
2024/02/13 04:28:26;;;;;;;21.92;8.27;;;;;;;4.61;100.00;101152.00;6288123;28;20052;-78
2024/02/13 04:31:27;;;;;;;15.02;7.20;;;;;;;4.65;100.00;101155.38;6292825;28;20170;-78
2024/02/13 04:34:29;;;;;;;15.48;7.57;;;;;;;4.66;100.00;101151.88;6301229;28;20088;-77
2024/02/13 04:37:30;;;;;;;15.68;7.28;;;;;;;4.71;100.00;101157.84;6301148;28;20060;-78
2024/02/13 04:40:32;;;;;;;14.38;6.85;;;;;;;4.69;100.00;101147.47;6301339;28;20333;-77
2024/02/13 04:43:35;;;;;;;19.58;6.68;;;;;;;4.72;100.00;101149.13;6300953;28;20063;-77
2024/02/13 04:46:36;;;;;;;17.85;7.13;;;;;;;4.72;100.00;101141.31;6301256;28;20067;-77
2024/02/13 04:49:38;;;;;;;18.60;6.80;;;;;;;4.68;100.00;101142.28;6300640;28;20055;-77
2024/02/13 04:52:39;;;;;;;15.05;7.53;;;;;;;4.68;100.00;101143.16;6301454;28;20059;-77
2024/02/13 04:55:40;;;;;;;14.65;7.05;;;;;;;4.69;100.00;101144.00;6300815;28;20045;-77
2024/02/13 04:58:43;;;;;;;20.88;8.48;;;;;;;4.78;100.00;101141.19;6300700;28;20352;-78
2024/02/13 05:01:45;;;;;;;21.05;7.28;;;;;;;4.82;100.00;101142.84;6300874;28;20479;-78
2024/02/13 05:08:06;;;;;;;17.65;7.80;;;;;;;4.84;100.00;101143.66;6300522;28;20064;-77
2024/02/13 05:11:07;;;;;;;19.25;8.48;;;;;;;4.90;100.00;101140.88;6300625;28;20135;-77
2024/02/13 05:14:10;;;;;;;22.40;8.68;;;;;;;4.90;100.00;101147.84;6300428;28;20048;-77
2024/02/13 05:17:12;;;;;;;24.80;8.23;;;;;;;4.90;100.00;101153.06;6299824;28;20458;-78
2024/02/13 05:20:13;;;;;;;19.08;8.68;;;;;;;4.88;100.00;101145.28;6300769;28;20055;-78
2024/02/13 05:23:15;;;;;;;21.30;8.35;;;;;;;4.89;100.00;101146.16;6300176;28;20048;-76
2024/02/13 05:26:18;;;;;;;20.77;10.00;;;;;;;4.94;100.00;101144.28;6300742;28;20135;-78
2024/02/13 05:29:21;;;;;;;21.33;9.45;;;;;;;4.93;100.00;101146.03;6299860;28;20476;-78
2024/02/13 05:32:22;;;;;;;25.17;10.93;;;;;;;4.87;100.00;101142.75;6300529;28;20049;-77
2024/02/13 05:35:24;;;;;;;21.27;9.45;;;;;;;4.91;100.00;101142.63;6299954;28;20049;-76
2024/02/13 05:38:26;;;;;;;36.35;14.43;;;;;;;4.91;100.00;101145.22;6300084;28;20044;-77
2024/02/13 05:41:27;;;;;;;21.92;11.02;;;;;;;4.97;100.00;101149.44;6300343;28;20139;-78
2024/02/13 05:44:29;;;;;;;31.00;12.55;;;;;;;4.93;100.00;101150.41;6299909;28;20044;-78
2024/02/13 05:47:35;;;;;;;30.27;12.77;;;;;;;4.99;100.00;101145.03;6299722;28;20437;-78
2024/02/13 05:50:36;;;;;;;32.47;11.55;;;;;;;4.99;100.00;101147.63;6300431;28;20372;-79
2024/02/13 05:53:37;;;;;;;29.05;12.23;;;;;;;4.95;100.00;101153.81;6299954;28;20041;-78
2024/02/13 05:56:39;;;;;;;33.55;12.73;;;;;;;4.91;100.00;101147.00;6299951;28;20053;-78
2024/02/13 05:59:41;;;;;;;31.00;13.70;;;;;;;4.90;100.00;101155.66;6299652;28;20048;-79
2024/02/13 06:02:43;;;;;;;26.80;11.73;;;;;;;4.88;100.00;101152.25;6300151;28;20462;-78
2024/02/13 06:05:44;;;;;;;31.50;12.15;;;;;;;4.83;100.00;101153.22;6299741;28;20048;-79
2024/02/13 06:08:46;;;;;;;27.08;11.30;;;;;;;4.89;100.00;101161.78;6299619;28;20059;-78
2024/02/13 06:11:48;;;;;;;24.15;11.35;;;;;;;4.92;100.00;101169.53;6300763;28;20135;-76
2024/02/13 06:14:52;;;;;;;28.50;13.02;;;;;;;4.96;100.00;101166.81;6301768;28;20364;-76
2024/02/13 06:17:54;;;;;;;31.60;13.18;;;;;;;4.93;100.00;101168.63;6304612;28;20053;-77
2024/02/13 06:20:55;;;;;;;24.20;11.70;;;;;;;4.91;100.00;101160.00;6304806;28;20052;-77
2024/02/13 06:23:56;;;;;;;36.08;13.45;;;;;;;4.81;100.00;101168.03;6304343;28;20052;-78
2024/02/13 06:26:58;;;;;;;38.13;13.27;;;;;;;4.84;100.00;101167.09;6304672;28;20060;-76
2024/02/13 06:30:01;;;;;;;38.63;12.30;;;;;;;4.81;100.00;101178.44;6303944;28;20044;-77
2024/02/13 06:33:02;;;;;;;32.10;14.23;;;;;;;4.76;100.00;101187.22;6304512;28;20048;-78
2024/02/13 06:36:05;;;;;;;30.90;13.85;;;;;;;4.73;100.00;101184.72;6303915;28;20053;-78
2024/02/13 06:39:07;;;;;;;31.77;12.38;;;;;;;4.74;100.00;101182.06;6303948;28;20459;-78
2024/02/13 06:42:08;;;;;;;33.55;13.13;;;;;;;4.70;100.00;101187.38;6303823;28;20055;-77
2024/02/13 06:45:12;;;;;;;32.67;13.90;;;;;;;4.79;100.00;101192.38;6303729;28;20071;-78
2024/02/13 06:48:13;;;;;;;32.47;14.10;;;;;;;4.76;100.00;101195.88;6303755;28;20052;-78
2024/02/13 06:51:14;;;;;;;32.78;13.30;;;;;;;4.64;100.00;101190.97;6304095;28;20048;-77
2024/02/13 06:54:18;;;;;;;31.17;13.98;;;;;;;4.69;100.00;101193.47;6303559;28;20329;-76
2024/02/13 06:57:19;;;;;;;37.00;14.05;;;;;;;4.64;100.00;101200.53;6303219;28;20134;-77
2024/02/13 07:00:25;;;;;;;35.20;14.63;;;;;;;4.60;100.00;101197.13;6303865;28;20048;-77
2024/02/13 07:03:27;;;;;;;29.88;14.35;;;;;;;4.63;100.00;101201.41;6303394;28;20477;-77
2024/02/13 07:06:28;;;;;;;35.05;16.05;;;;;;;4.67;100.00;101208.25;6303740;28;20045;-78
2024/02/13 07:09:29;;;;;;;39.60;16.52;;;;;;;4.59;100.00;101216.25;6303114;28;20048;-76
2024/02/13 07:12:31;;;;;;;45.92;16.05;;;;;;;4.55;100.00;101210.25;6303674;28;20056;-79
2024/02/13 07:15:35;;;;;;;36.05;14.43;;;;;;;4.59;100.00;101213.66;6303020;28;20463;-78
2024/02/13 07:18:36;;;;;;;43.85;16.50;;;;;;;4.58;100.00;101212.75;6303202;28;20438;-76
2024/02/13 07:21:38;;;;;;;31.02;14.98;;;;;;;4.57;100.00;101210.19;6303202;28;20498;-76
2024/02/13 07:24:39;;;;;;;37.72;15.85;;;;;;;4.58;100.00;101223.16;6318534;28;20044;-77
2024/02/13 07:27:41;;;;;;;42.63;16.95;;;;;;;4.65;100.00;101231.72;6326973;28;20185;-77
2024/02/13 07:30:44;;;;;;;38.42;16.30;;;;;;;4.69;100.00;101237.72;6328137;28;20363;-77
2024/02/13 07:33:45;;;;;;;50.65;16.92;;;;;;;4.77;100.00;101238.44;6324775;28;20370;-77
2024/02/13 07:36:47;;;;;;;41.25;17.83;;;;;;;4.81;100.00;101240.06;6302574;28;20045;-77
2024/02/13 07:39:48;;;;;;;40.67;16.95;;;;;;;4.88;100.00;101249.47;6302426;28;20044;-77
2024/02/13 07:42:49;;;;;;;44.45;15.70;;;;;;;4.87;100.00;101255.56;6302797;28;20048;-77
2024/02/13 07:45:52;;;;;;;35.92;17.23;;;;;;;4.96;100.00;101260.56;6302567;28;20047;-76
2024/02/13 07:48:55;;;;;;;47.38;19.55;;;;;;;4.96;100.00;101255.38;6301964;28;20368;-76
2024/02/13 07:51:56;;;;;;;41.97;17.92;;;;;;;4.97;100.00;101251.00;6303042;28;20456;-77
2024/02/13 07:54:59;;;;;;;45.17;17.30;;;;;;;5.06;100.00;101256.00;6302159;28;20429;-77
2024/02/13 07:58:01;;;;;;;41.88;17.90;;;;;;;5.08;100.00;101247.25;6302054;28;20048;-77
2024/02/13 08:01:04;;;;;;;33.78;16.10;;;;;;;5.11;100.00;101248.94;6302310;28;20349;-78
2024/02/13 08:04:05;;;;;;;41.10;17.52;;;;;;;5.20;100.00;101256.56;6302183;28;20063;-76
2024/02/13 08:07:07;;;;;;;37.78;15.75;;;;;;;5.20;100.00;101259.16;6301859;28;20052;-79
2024/02/13 08:10:11;;;;;;;38.30;15.45;;;;;;;5.23;100.00;101251.28;6302514;28;20138;-80
2024/02/13 08:13:12;;;;;;;40.05;16.40;;;;;;;5.24;100.00;101260.81;6294787;28;20051;-78
2024/02/13 08:16:15;;;;;;;36.35;15.80;;;;;;;5.26;100.00;101258.16;6301036;28;20044;-81
2024/02/13 08:19:16;;;;;;;42.65;15.82;;;;;;;5.33;100.00;101259.75;6301863;28;20048;-81
2024/02/13 08:22:18;;;;;;;38.95;16.30;;;;;;;5.45;100.00;101251.63;6286150;28;20055;-80
2024/02/13 08:25:20;;;;;;;40.88;17.13;;;;;;;5.52;100.00;101257.53;6301532;28;20056;-81
2024/02/13 08:28:21;;;;;;;37.58;15.73;;;;;;;5.52;100.00;101262.75;6300959;28;20455;-80
2024/02/13 08:31:25;;;;;;;37.72;15.02;;;;;;;5.51;100.00;101267.13;6301582;28;20372;-79
2024/02/13 08:34:26;;;;;;;38.70;14.13;;;;;;;5.62;100.00;101274.66;6301132;28;20352;-82
2024/02/13 08:37:28;;;;;;;32.90;14.52;;;;;;;5.62;100.00;101277.28;6300721;28;20487;-82
2024/02/13 08:40:29;;;;;;;37.72;14.98;;;;;;;5.66;100.00;101272.84;6301593;28;20344;-81
2024/02/13 08:43:32;;;;;;;40.33;13.18;;;;;;;5.73;100.00;101280.50;6288881;28;20425;-81
2024/02/13 08:46:35;;;;;;;31.23;14.13;;;;;;;5.70;100.00;101277.94;6298251;28;20085;-83
2024/02/13 08:49:37;;;;;;;31.65;13.82;;;;;;;5.75;100.00;101273.47;6291333;28;20040;-81
2024/02/13 08:52:38;;;;;;;32.75;13.73;;;;;;;5.81;100.00;101270.72;6282664;28;20104;-80
2024/02/13 08:55:41;;;;;;;34.22;13.45;;;;;;;5.83;100.00;101281.97;6291050;28;20049;-82
2024/02/13 08:58:43;;;;;;;38.22;13.30;;;;;;;5.89;100.00;101296.59;6300657;28;20055;-79
2024/02/13 09:01:45;;;;;;;30.83;11.93;;;;;;;5.96;100.00;101295.59;6300915;28;20052;-78
2024/02/13 09:04:48;;;;;;;37.53;12.65;;;;;;;5.87;100.00;101293.19;6299765;28;20044;-82
2024/02/13 09:07:49;;;;;;;30.77;12.80;;;;;;;5.88;100.00;101300.13;6300092;28;20357;-79
2024/02/13 09:10:51;;;;;;;31.50;12.70;;;;;;;5.93;100.00;101295.66;6301020;28;20059;-79
2024/02/13 09:13:52;;;;;;;30.45;11.68;;;;;;;6.03;100.00;101299.75;6300520;28;20055;-81
2024/02/13 09:16:57;;;;;;;32.22;13.40;;;;;;;6.03;100.00;101304.09;6300434;28;20048;-79
2024/02/13 09:19:58;;;;;;;28.90;12.27;;;;;;;6.07;100.00;101304.00;6300093;28;20484;-84
2024/02/13 09:23:00;;;;;;;31.33;11.98;;;;;;;6.05;100.00;101308.41;6300034;28;20052;-83
2024/02/13 09:26:01;;;;;;;32.78;13.43;;;;;;;6.12;100.00;101316.91;6300541;28;20056;-81
2024/02/13 09:29:05;;;;;;;33.33;13.50;;;;;;;6.15;100.00;101326.44;6296780;28;20226;-81
2024/02/13 09:32:10;;;;;;;26.27;11.52;;;;;;;6.23;100.00;101327.09;6300592;28;20052;-81
2024/02/13 09:35:11;;;;;;;29.25;12.05;;;;;;;6.22;100.00;101328.84;6299783;28;20067;-83
2024/02/13 09:38:13;;;;;;;30.50;11.75;;;;;;;6.32;100.00;101335.53;6299985;28;20071;-80
2024/02/13 09:41:14;;;;;;;28.95;11.73;;;;;;;6.33;100.00;101334.63;6300287;28;20045;-82
2024/02/13 09:44:16;;;;;;;28.17;12.65;;;;;;;6.44;100.00;101328.28;6300087;28;20044;-80
2024/02/13 09:47:19;;;;;;;24.10;11.10;;;;;;;6.37;100.00;101331.97;6299950;28;20045;-82
2024/02/13 09:50:29;;;;;;;25.40;11.45;;;;;;;6.50;100.00;101351.63;6299482;28;20052;-84
2024/02/13 09:53:34;;;;;;;25.48;11.82;;;;;;;6.60;100.00;101338.25;6299959;28;20129;-82
2024/02/13 09:56:38;;;;;;;28.85;12.00;;;;;;;6.61;100.00;101342.59;6300010;28;20044;-79
2024/02/13 09:59:41;;;;;;;25.83;11.05;;;;;;;6.53;100.00;101341.94;6299932;28;20055;-79
2024/02/13 10:02:45;;;;;;;30.38;12.07;;;;;;;6.55;100.00;101345.38;6299932;28;20088;-79
2024/02/13 10:05:46;;;;;;;27.75;11.80;;;;;;;6.50;100.00;101347.25;6299720;28;20046;-79
2024/02/13 10:08:52;;;;;;;25.42;10.95;;;;;;;6.53;100.00;101351.53;6299322;28;20045;-80
2024/02/13 10:11:53;;;;;;;25.88;11.00;;;;;;;6.64;100.00;101346.03;6300047;28;20052;-81
2024/02/13 10:14:58;;;;;;;29.83;11.65;;;;;;;6.70;100.00;101353.69;6299292;28;20060;-79
2024/02/13 10:18:01;;;;;;;27.92;11.68;;;;;;;6.69;100.00;101347.59;6299667;28;20080;-80
2024/02/13 10:21:05;;;;;;;25.33;11.45;;;;;;;6.69;100.00;101365.03;6292974;28;20048;-82
2024/02/13 10:24:09;;;;;;;30.95;13.02;;;;;;;6.76;100.00;101361.34;6299952;28;20049;-81
2024/02/13 10:27:11;;;;;;;23.92;10.60;;;;;;;6.82;100.00;101361.19;6299187;28;20136;-79
2024/02/13 10:30:21;;;;;;;23.40;11.05;;;;;;;6.80;100.00;101366.44;6299906;28;20113;-79
2024/02/13 10:33:24;;;;;;;25.67;11.77;;;;;;;6.83;100.00;101362.91;6299280;28;20048;-79
2024/02/13 10:36:25;;;;;;;26.02;10.88;;;;;;;6.89;100.00;101367.09;6299573;28;20044;-84
2024/02/13 10:39:28;;;;;;;28.13;9.98;;;;;;;7.00;100.00;101365.88;6299492;28;20056;-82
2024/02/13 10:42:37;;;;;;;28.13;11.88;;;;;;;7.08;100.00;101371.72;6299881;28;20143;-81
2024/02/13 10:45:39;;;;;;;22.33;11.88;;;;;;;7.28;100.00;101378.16;6299414;28;20052;-82
2024/02/13 10:48:51;;;;;;;28.58;12.05;;;;;;;7.26;100.00;101383.41;6298264;28;20349;-82
2024/02/13 10:51:55;;;;;;;23.50;11.00;;;;;;;7.30;100.00;101377.19;6299444;28;20048;-81
2024/02/13 10:54:58;;;;;;;22.65;10.82;;;;;;;7.37;100.00;101381.34;6299094;28;20044;-82
2024/02/13 10:57:59;;;;;;;26.80;10.55;;;;;;;7.52;100.00;101374.78;6298868;28;20048;-79
2024/02/13 11:01:03;;;;;;;22.08;10.02;;;;;;;7.56;100.00;101378.19;6298605;28;20352;-79
2024/02/13 11:04:06;;;;;;;29.17;10.85;;;;;;;7.45;100.00;101368.06;6302989;28;20398;-82
2024/02/13 11:07:10;;;;;;;23.25;11.52;;;;;;;7.61;100.00;101371.91;6303073;28;20045;-81
2024/02/13 11:10:13;;;;;;;26.17;10.23;;;;;;;7.79;100.00;101375.69;6303348;28;20459;-80
2024/02/13 11:13:18;;;;;;;19.90;9.77;;;;;;;7.79;100.00;101360.00;6303413;28;20139;-79
2024/02/13 11:16:20;;;;;;;21.00;10.18;;;;;;;7.75;100.00;101368.84;6303137;28;20044;-80
2024/02/13 11:19:23;;;;;;;19.40;9.27;;;;;;;7.78;100.00;101371.38;6302494;28;20093;-80
2024/02/13 11:22:33;;;;;;;18.65;9.00;;;;;;;7.72;100.00;101373.31;6278512;28;20429;-83
2024/02/13 11:25:34;;;;;;;24.10;9.15;;;;;;;7.51;100.00;101375.69;6291869;28;20440;-80
2024/02/13 11:28:38;;;;;;;20.55;9.00;;;;;;;7.56;100.00;101368.56;6302571;28;20108;-81
2024/02/13 11:31:40;;;;;;;21.35;8.90;;;;;;;7.63;100.00;101370.09;6301886;28;20151;-81
2024/02/13 11:34:43;;;;;;;20.70;9.93;;;;;;;7.83;100.00;101371.22;6301286;28;20368;-81
2024/02/13 11:37:46;;;;;;;18.17;9.15;;;;;;;7.95;100.00;101370.84;6284297;28;20045;-80
2024/02/13 11:40:49;;;;;;;19.67;9.38;;;;;;;8.03;100.00;101370.56;6289416;28;20044;-81
2024/02/13 11:43:50;;;;;;;23.10;9.15;;;;;;;8.12;100.00;101371.13;6289966;28;20057;-81
2024/02/13 11:46:53;;;;;;;23.30;9.07;;;;;;;8.22;100.00;101371.69;6294317;28;20094;-81
2024/02/13 11:49:56;;;;;;;21.45;8.48;;;;;;;8.17;100.00;101367.50;6289776;28;20380;-82
2024/02/13 11:52:57;;;;;;;19.58;8.63;;;;;;;8.21;100.00;101369.13;6290892;28;20060;-80
2024/02/13 11:55:59;;;;;;;17.80;8.45;;;;;;;8.47;100.00;101363.03;6291942;28;20052;-84
2024/02/13 11:59:05;;;;;;;14.10;8.10;;;;;;;8.60;100.00;101372.16;6290173;28;20051;-79
2024/02/13 12:02:11;;;;;;;26.75;8.80;;;;;;;8.27;100.00;101376.78;6292280;28;20055;-78
2024/02/13 12:05:15;;;;;;;15.68;7.80;;;;;;;8.25;100.00;101371.56;6290475;28;20076;-79
2024/02/13 12:08:18;;;;;;;13.88;6.80;;;;;;;8.43;100.00;101364.88;6287776;28;20054;-81
2024/02/13 12:11:20;;;;;;;16.35;6.93;;;;;;;8.55;100.00;101368.88;6292868;28;20428;-81
2024/02/13 12:14:23;;;;;;;13.43;7.20;;;;;;;8.64;100.00;101373.78;6288223;28;20053;-81
2024/02/13 12:17:26;;;;;;;21.75;6.90;;;;;;;8.73;100.00;101373.44;6289358;28;20044;-83
2024/02/13 12:20:29;;;;;;;14.73;7.32;;;;;;;8.89;100.00;101366.72;6285068;28;20045;-81
2024/02/13 12:23:30;;;;;;;13.35;5.95;;;;;;;9.01;100.00;101367.22;6287236;28;20139;-81
2024/02/13 12:26:32;;;;;;;15.38;6.65;;;;;;;9.13;100.00;101374.63;6288286;28;20122;-81
2024/02/13 12:29:38;;;;;;;12.10;6.60;;;;;;;9.18;100.00;101369.22;6276681;28;20053;-81
2024/02/13 12:32:40;;;;;;;16.45;6.57;;;;;;;9.03;100.00;101362.75;6276878;28;20049;-82
2024/02/13 12:35:46;;;;;;;17.05;7.35;;;;;;;9.07;100.00;101359.09;6276669;28;20049;-82
2024/02/13 12:38:47;;;;;;;11.20;6.13;;;;;;;9.20;100.00;101359.50;6276828;28;20045;-82
2024/02/13 12:41:51;;;;;;;12.35;6.00;;;;;;;9.09;100.00;101363.41;6289509;28;20460;-80
2024/02/13 12:44:52;;;;;;;9.05;6.20;;;;;;;8.97;100.00;101371.69;6300902;28;20048;-83
2024/02/13 12:47:55;;;;;;;13.00;5.90;;;;;;;9.01;100.00;101368.06;6301273;28;20044;-82
2024/02/13 12:51:02;;;;;;;11.23;5.78;;;;;;;8.83;100.00;101366.13;6301119;28;20145;-80
2024/02/13 12:54:06;;;;;;;17.35;6.70;;;;;;;8.90;100.00;101367.59;6301220;28;20194;-81
2024/02/13 12:57:07;;;;;;;13.43;5.65;;;;;;;8.92;100.00;101365.78;6300471;28;20084;-82
2024/02/13 13:00:16;;;;;;;17.90;5.78;;;;;;;9.12;100.00;101368.50;6301005;28;20447;-80
2024/02/13 13:03:19;;;;;;;11.20;5.28;;;;;;;9.25;100.00;101366.28;6300675;28;20083;-77
2024/02/13 13:06:22;;;;;;;11.98;5.43;;;;;;;9.29;100.00;101356.53;6300914;28;20045;-80
2024/02/13 13:09:25;;;;;;;11.00;5.50;;;;;;;9.42;100.00;101365.66;6300409;28;20051;-80
2024/02/13 13:12:26;;;;;;;10.85;5.50;;;;;;;9.55;100.00;101355.53;6300508;28;20154;-79
2024/02/13 13:15:28;;;;;;;9.65;5.13;;;;;;;9.54;100.00;101362.56;6300282;28;20059;-80
2024/02/13 13:18:29;;;;;;;10.15;4.80;;;;;;;9.55;100.00;101358.16;6300012;28;20182;-79
2024/02/13 13:21:33;;;;;;;10.77;4.38;;;;;;;9.71;100.00;101361.88;6300406;28;20360;-78
2024/02/13 13:24:35;;;;;;;14.55;4.70;;;;;;;9.40;100.00;101349.09;6299468;28;20055;-79
2024/02/13 13:27:37;;;;;;;8.48;4.35;;;;;;;9.43;100.00;101356.00;6299753;28;20044;-78
2024/02/13 13:30:40;;;;;;;8.50;3.90;;;;;;;9.68;100.00;101356.75;6298326;28;20063;-78
2024/02/13 13:33:42;;;;;;;11.40;3.53;;;;;;;9.78;100.00;101355.47;6300154;28;20441;-80
2024/02/13 13:36:45;;;;;;;9.15;3.75;;;;;;;9.83;100.00;101357.91;6299506;28;20067;-79
2024/02/13 13:39:47;;;;;;;8.75;3.65;;;;;;;9.51;100.00;101354.78;6299587;28;20453;-77
2024/02/13 13:42:48;;;;;;;6.40;3.42;;;;;;;9.45;100.00;101362.91;6300343;28;20055;-79
2024/02/13 13:45:55;;;;;;;9.18;3.78;;;;;;;9.06;100.00;101368.75;6299795;28;20441;-80
2024/02/13 13:48:56;;;;;;;5.43;3.35;;;;;;;8.84;100.00;101373.91;6299729;28;20049;-79
2024/02/13 13:51:59;;;;;;;5.15;3.40;;;;;;;8.84;100.00;101370.44;6300050;28;20065;-80
2024/02/13 13:55:02;;;;;;;6.50;3.65;;;;;;;8.88;100.00;101367.66;6299826;28;20103;-79
2024/02/13 13:58:04;;;;;;;8.95;3.08;;;;;;;8.79;100.00;101375.84;6299418;28;20040;-78